メインページ
METAR-TAF:

METAR-TAF

空港 :

Jefferson County International Airport

ポートタウンゼン, ワシントン, アメリカ合衆国

緯度: 48-03-14N, 経度: 122-48-38W, 海抜: 33m

現時点の気象観測

当レポートは33分前の17:35(UTC)に作成
東/南東の風 7kt
気温 12°C
湿度 94%
気圧 1017 hPa
視程: 16.1km
高度1000ftの曇り

METAR: K0S9 171735Z AUTO 12007KT 10SM OVC010 12/11 A3002 RMK AO2

時間: 10:08 (18:08 UTC)


TAF: 見つかりません

4,000以上の空港の気象観測と天気予報(METAR報とTAF報)

利用可能な観測所は地図上に黄色い丸と赤い丸で示す。

丸の上にカーソルを重ねると観測所名を参照できる。

次にクリックすると気象観測と天気予報を参照できる。

マップの切り替え:黒色「×」印の緑ボタンをクリックして拡大、「-」印の緑ボタンをクリックして縮小、緑色の三角印をクリックして隣りの地図に切り替え


METAR-TAF: